Western Neb. Rgnl/William B. Heilig Airport
KBFF : now visible

Airfield :











YOU CAN JOIN US ON...

 
LOGIN :

Register | Disclaimer

   EN    FR    IT 

 









Legend :    VFR   Marginal VFR   IFR   Intensive IFR   Very Intensive IFR
Visi :
Ceiling :
>= 8 km
>= 3000ft
5 to 8 km
1000 to 3000 ft
1500m to 5 km
500 to 1000 ft
800 to 1500m
200 to 500 ft
< 800m
< 200 ft
Symbols :   Thunderstorms  Fog  Heavy snow  Heavy precipitations  Wind > 20 kt







- Airport Elevation : 3967 ft
- IATA code : BFF


KBFF - Western Neb. Rgnl/William B. Heilig

CURRENT METAR :
  • 222353Z AUTO 14012KT 10SM CLR 28/18 A2987 RMK AO2 LTG DSNT S SLP067 T02780178 10306 20261 55014

EXPIRED METARs :
  • 222253Z AUTO 13016G22KT 10SM CLR 30/18 A2985 RMK AO2 SLP059 T03000178
  • 222153Z AUTO 13016G23KT 10SM CLR 30/18 A2988 RMK AO2 SLP066 T03000178
  • 222053Z AUTO 14017G23KT 10SM FEW047 30/18 A2991 RMK AO2 SLP072 T03000178 56007

TAF KBFF
Valid from the 23 at 00:00 until the 24 at 00:00 UTC


222321Z 2300/2324 13014G24KT P6SM SCT070 BKN250
FM230400 13010KT P6SM BKN250
FM231200 11010KT P6SM BKN030
FM231600 14008KT P6SM SCT030
No reported NOTAMs for that airfield.



MET'MAP, your aeronautical weather chart ! - Copyright ORBIFLY December 2007 - Disclaimer

ORBIFLY MET'MAP TEAM :

Programming & Development : Alexandra Zaïnal
Concept & Development : Baudouin d'Aumeries
Co-Development & Prog : Marc-Olivier Méhu
Technical & hardware support : Manuel Goepfert

Contact : metmap@orbifly.com




SOURCES & CREDITS :

   NOAA       Earth
Advisory